sensor_id;sensor_type;location;lat;lon;timestamp;temperature;humidity
6536;DHT22;34330;52.08032700;5.40923460;2023-01-19T09:31:58;5.90;94.40
6536;DHT22;34330;52.08032700;5.40923460;2023-01-19T09:34:26;6.00;94.10
6536;DHT22;34330;52.08032700;5.40923460;2023-01-19T09:36:54;6.00;94.10
6536;DHT22;34330;52.08032700;5.40923460;2023-01-19T09:39:24;6.00;94.00
6536;DHT22;34330;52.08032700;5.40923460;2023-01-19T09:41:58;6.10;94.00
6536;DHT22;34330;52.08032700;5.40923460;2023-01-19T09:44:30;6.10;94.00
6536;DHT22;34330;52.08032700;5.40923460;2023-01-19T09:47:01;6.20;93.90
6536;DHT22;34330;52.08032700;5.40923460;2023-01-19T09:49:32;6.20;93.80
6536;DHT22;34330;52.08032700;5.40923460;2023-01-19T09:52:01;6.20;93.80
6536;DHT22;34330;52.08032700;5.40923460;2023-01-19T09:54:35;6.20;93.80
6536;DHT22;34330;52.08032700;5.40923460;2023-01-19T09:57:09;6.30;93.90
6536;DHT22;34330;52.08032700;5.40923460;2023-01-19T09:59:37;6.30;93.80
6536;DHT22;34330;52.08032700;5.40923460;2023-01-19T10:02:16;6.30;94.00
6536;DHT22;34330;52.08032700;5.40923460;2023-01-19T10:04:54;6.40;94.40
6536;DHT22;34330;52.08032700;5.40923460;2023-01-19T10:07:32;6.50;94.20
6536;DHT22;34330;52.08032700;5.40923460;2023-01-19T10:10:21;6.60;94.20
6536;DHT22;34330;52.08032700;5.40923460;2023-01-19T10:13:20;6.60;94.00
6536;DHT22;34330;52.08032700;5.40923460;2023-01-19T10:15:58;6.60;94.20
6536;DHT22;34330;52.08032700;5.40923460;2023-01-19T10:18:41;6.70;94.30
6536;DHT22;34330;52.08032700;5.40923460;2023-01-19T10:21:18;6.80;94.30
6536;DHT22;34330;52.08032700;5.40923460;2023-01-19T10:23:50;6.80;94.20
6536;DHT22;34330;52.08032700;5.40923460;2023-01-19T10:26:22;6.90;94.20
6536;DHT22;34330;52.08032700;5.40923460;2023-01-19T10:28:54;7.00;94.00
6536;DHT22;34330;52.08032700;5.40923460;2023-01-19T10:31:24;7.00;94.20
6536;DHT22;34330;52.08032700;5.40923460;2023-01-19T10:33:54;7.10;94.00
6536;DHT22;34330;52.08032700;5.40923460;2023-01-19T10:36:26;7.20;94.00
6536;DHT22;34330;52.08032700;5.40923460;2023-01-19T10:38:55;7.20;94.00
6536;DHT22;34330;52.08032700;5.40923460;2023-01-19T10:41:25;7.30;93.80
6536;DHT22;34330;52.08032700;5.40923460;2023-01-19T10:43:59;7.40;93.80
6536;DHT22;34330;52.08032700;5.40923460;2023-01-19T10:46:33;7.40;93.60
6536;DHT22;34330;52.08032700;5.40923460;2023-01-19T10:49:05;7.50;93.60
6536;DHT22;34330;52.08032700;5.40923460;2023-01-19T10:51:45;7.50;93.40
6536;DHT22;34330;52.08032700;5.40923460;2023-01-19T10:54:15;7.60;93.20
6536;DHT22;34330;52.08032700;5.40923460;2023-01-19T10:56:50;7.70;93.10
6536;DHT22;34330;52.08032700;5.40923460;2023-01-19T10:59:30;7.70;92.70
6536;DHT22;34330;52.08032700;5.40923460;2023-01-19T11:02:17;7.70;92.50
6536;DHT22;34330;52.08032700;5.40923460;2023-01-19T11:04:50;7.80;92.40
6536;DHT22;34330;52.08032700;5.40923460;2023-01-19T11:07:21;7.80;92.40
6536;DHT22;34330;52.08032700;5.40923460;2023-01-19T11:10:19;7.90;92.40
6536;DHT22;34330;52.08032700;5.40923460;2023-01-19T11:12:55;7.90;92.10
6536;DHT22;34330;52.08032700;5.40923460;2023-01-19T11:15:28;7.90;92.10
6536;DHT22;34330;52.08032700;5.40923460;2023-01-19T11:17:57;8.00;92.10
6536;DHT22;34330;52.08032700;5.40923460;2023-01-19T11:20:32;8.10;92.00
6536;DHT22;34330;52.08032700;5.40923460;2023-01-19T11:23:09;8.10;91.70
6536;DHT22;34330;52.08032700;5.40923460;2023-01-19T11:25:45;8.10;91.50
6536;DHT22;34330;52.08032700;5.40923460;2023-01-19T11:28:19;8.20;91.50
6536;DHT22;34330;52.08032700;5.40923460;2023-01-19T11:30:56;8.20;91.40
6536;DHT22;34330;52.08032700;5.40923460;2023-01-19T11:33:27;8.20;91.30
6536;DHT22;34330;52.08032700;5.40923460;2023-01-19T11:36:05;8.20;91.20
6536;DHT22;34330;52.08032700;5.40923460;2023-01-19T11:38:40;8.30;91.00
6536;DHT22;34330;52.08032700;5.40923460;2023-01-19T11:41:16;8.30;91.10
6536;DHT22;34330;52.08032700;5.40923460;2023-01-19T11:43:45;8.40;91.10
6536;DHT22;34330;52.08032700;5.40923460;2023-01-19T11:46:18;8.40;91.20
6536;DHT22;34330;52.08032700;5.40923460;2023-01-19T11:48:51;8.40;90.90
6536;DHT22;34330;52.08032700;5.40923460;2023-01-19T11:51:28;8.50;91.10
6536;DHT22;34330;52.08032700;5.40923460;2023-01-19T11:53:57;8.60;90.80
6536;DHT22;34330;52.08032700;5.40923460;2023-01-19T11:56:27;8.60;90.30
6536;DHT22;34330;52.08032700;5.40923460;2023-01-19T11:58:55;8.70;90.00
6536;DHT22;34330;52.08032700;5.40923460;2023-01-19T12:01:27;8.70;89.30
6536;DHT22;34330;52.08032700;5.40923460;2023-01-19T12:04:00;8.80;89.00
6536;DHT22;34330;52.08032700;5.40923460;2023-01-19T12:06:34;8.90;89.70
6536;DHT22;34330;52.08032700;5.40923460;2023-01-19T12:09:06;8.90;89.50
6536;DHT22;34330;52.08032700;5.40923460;2023-01-19T12:11:42;9.00;89.40
6536;DHT22;34330;52.08032700;5.40923460;2023-01-19T12:14:18;9.00;88.80
6536;DHT22;34330;52.08032700;5.40923460;2023-01-19T12:16:56;9.10;87.80
6536;DHT22;34330;52.08032700;5.40923460;2023-01-19T12:19:32;9.30;87.70
6536;DHT22;34330;52.08032700;5.40923460;2023-01-19T12:22:03;9.40;87.90
6536;DHT22;34330;52.08032700;5.40923460;2023-01-19T12:24:35;9.30;87.10
6536;DHT22;34330;52.08032700;5.40923460;2023-01-19T12:27:12;9.60;87.60
6536;DHT22;34330;52.08032700;5.40923460;2023-01-19T12:29:42;9.30;86.60
6536;DHT22;34330;52.08032700;5.40923460;2023-01-19T12:32:18;9.40;86.90
6536;DHT22;34330;52.08032700;5.40923460;2023-01-19T12:34:48;9.40;86.30
6536;DHT22;34330;52.08032700;5.40923460;2023-01-19T12:37:33;9.50;86.40
6536;DHT22;34330;52.08032700;5.40923460;2023-01-19T12:40:16;9.40;85.20
6536;DHT22;34330;52.08032700;5.40923460;2023-01-19T12:42:50;9.50;85.30
6536;DHT22;34330;52.08032700;5.40923460;2023-01-19T12:45:22;9.40;84.40
6536;DHT22;34330;52.08032700;5.40923460;2023-01-19T12:47:52;9.50;84.70
6536;DHT22;34330;52.08032700;5.40923460;2023-01-19T12:50:22;9.70;84.70
6536;DHT22;34330;52.08032700;5.40923460;2023-01-19T12:52:54;9.40;84.60
6536;DHT22;34330;52.08032700;5.40923460;2023-01-19T12:55:26;9.40;84.30
6536;DHT22;34330;52.08032700;5.40923460;2023-01-19T12:58:00;9.40;84.00
6536;DHT22;34330;52.08032700;5.40923460;2023-01-19T13:00:38;9.50;83.40
6536;DHT22;34330;52.08032700;5.40923460;2023-01-19T13:03:42;9.50;82.20
6536;DHT22;34330;52.08032700;5.40923460;2023-01-19T13:06:11;9.50;82.50
6536;DHT22;34330;52.08032700;5.40923460;2023-01-19T13:08:57;9.50;83.30
6536;DHT22;34330;52.08032700;5.40923460;2023-01-19T13:11:26;9.50;81.90
6536;DHT22;34330;52.08032700;5.40923460;2023-01-19T13:17:24;9.50;82.60
6536;DHT22;34330;52.08032700;5.40923460;2023-01-19T13:25:57;9.60;80.10
6536;DHT22;34330;52.08032700;5.40923460;2023-01-19T13:28:31;9.60;81.00
6536;DHT22;34330;52.08032700;5.40923460;2023-01-19T13:31:01;9.60;80.80
6536;DHT22;34330;52.08032700;5.40923460;2023-01-19T13:33:37;9.60;80.90
6536;DHT22;34330;52.08032700;5.40923460;2023-01-19T13:36:21;9.60;79.80
6536;DHT22;34330;52.08032700;5.40923460;2023-01-19T13:38:53;9.60;79.70
6536;DHT22;34330;52.08032700;5.40923460;2023-01-19T13:41:25;9.60;79.90
6536;DHT22;34330;52.08032700;5.40923460;2023-01-19T13:43:58;9.50;79.10
6536;DHT22;34330;52.08032700;5.40923460;2023-01-19T13:46:28;9.50;77.50
6536;DHT22;34330;52.08032700;5.40923460;2023-01-19T13:49:00;9.60;78.50
6536;DHT22;34330;52.08032700;5.40923460;2023-01-19T13:51:29;9.50;78.40
6536;DHT22;34330;52.08032700;5.40923460;2023-01-19T13:53:58;9.40;79.10
6536;DHT22;34330;52.08032700;5.40923460;2023-01-19T13:56:28;9.40;78.30
6536;DHT22;34330;52.08032700;5.40923460;2023-01-19T13:59:03;9.30;78.00
6536;DHT22;34330;52.08032700;5.40923460;2023-01-19T14:01:37;9.30;77.30
6536;DHT22;34330;52.08032700;5.40923460;2023-01-19T14:04:23;9.20;78.00
6536;DHT22;34330;52.08032700;5.40923460;2023-01-19T14:06:51;9.20;78.00
6536;DHT22;34330;52.08032700;5.40923460;2023-01-19T14:09:21;9.20;79.00
6536;DHT22;34330;52.08032700;5.40923460;2023-01-19T14:12:10;9.20;78.30
6536;DHT22;34330;52.08032700;5.40923460;2023-01-19T14:14:40;9.20;78.00
6536;DHT22;34330;52.08032700;5.40923460;2023-01-19T14:17:21;9.10;78.40
6536;DHT22;34330;52.08032700;5.40923460;2023-01-19T14:19:51;9.10;77.00
6536;DHT22;34330;52.08032700;5.40923460;2023-01-19T14:22:20;9.10;78.60
6536;DHT22;34330;52.08032700;5.40923460;2023-01-19T14:24:48;9.10;78.20
6536;DHT22;34330;52.08032700;5.40923460;2023-01-19T14:27:22;9.10;78.60
6536;DHT22;34330;52.08032700;5.40923460;2023-01-19T14:29:51;9.10;78.10
6536;DHT22;34330;52.08032700;5.40923460;2023-01-19T14:32:22;9.00;77.70
6536;DHT22;34330;52.08032700;5.40923460;2023-01-19T14:34:51;9.00;78.80
6536;DHT22;34330;52.08032700;5.40923460;2023-01-19T14:37:23;9.00;78.60
6536;DHT22;34330;52.08032700;5.40923460;2023-01-19T14:39:55;9.00;78.60
6536;DHT22;34330;52.08032700;5.40923460;2023-01-19T14:42:28;9.00;78.20
6536;DHT22;34330;52.08032700;5.40923460;2023-01-19T14:44:59;9.00;77.60
6536;DHT22;34330;52.08032700;5.40923460;2023-01-19T14:47:34;9.00;78.20
6536;DHT22;34330;52.08032700;5.40923460;2023-01-19T14:50:07;9.00;78.40
6536;DHT22;34330;52.08032700;5.40923460;2023-01-19T14:52:38;8.90;77.10
6536;DHT22;34330;52.08032700;5.40923460;2023-01-19T14:55:15;8.90;77.70
6536;DHT22;34330;52.08032700;5.40923460;2023-01-19T14:57:47;8.90;77.40
6536;DHT22;34330;52.08032700;5.40923460;2023-01-19T15:00:17;8.80;77.40
6536;DHT22;34330;52.08032700;5.40923460;2023-01-19T15:02:48;8.80;77.20
6536;DHT22;34330;52.08032700;5.40923460;2023-01-19T15:05:18;8.70;77.10
6536;DHT22;34330;52.08032700;5.40923460;2023-01-19T15:07:51;8.70;77.30
6536;DHT22;34330;52.08032700;5.40923460;2023-01-19T15:10:21;8.60;76.80
6536;DHT22;34330;52.08032700;5.40923460;2023-01-19T15:12:51;8.60;76.50
6536;DHT22;34330;52.08032700;5.40923460;2023-01-19T15:15:25;8.50;76.90
6536;DHT22;34330;52.08032700;5.40923460;2023-01-19T15:17:56;8.50;76.70
6536;DHT22;34330;52.08032700;5.40923460;2023-01-19T15:20:24;8.40;76.70
6536;DHT22;34330;52.08032700;5.40923460;2023-01-19T15:22:52;8.40;76.90
6536;DHT22;34330;52.08032700;5.40923460;2023-01-19T15:25:21;8.40;76.80
6536;DHT22;34330;52.08032700;5.40923460;2023-01-19T15:27:56;8.30;76.50
6536;DHT22;34330;52.08032700;5.40923460;2023-01-19T15:30:26;8.30;76.40
6536;DHT22;34330;52.08032700;5.40923460;2023-01-19T15:32:56;8.30;76.80
6536;DHT22;34330;52.08032700;5.40923460;2023-01-19T15:35:24;8.20;77.00
6536;DHT22;34330;52.08032700;5.40923460;2023-01-19T15:37:52;8.20;76.80
6536;DHT22;34330;52.08032700;5.40923460;2023-01-19T15:40:23;8.10;76.50
6536;DHT22;34330;52.08032700;5.40923460;2023-01-19T15:42:53;8.10;76.60
6536;DHT22;34330;52.08032700;5.40923460;2023-01-19T15:45:41;8.20;76.60
6536;DHT22;34330;52.08032700;5.40923460;2023-01-19T15:48:10;8.00;76.30
6536;DHT22;34330;52.08032700;5.40923460;2023-01-19T15:50:40;8.00;77.00
6536;DHT22;34330;52.08032700;5.40923460;2023-01-19T15:53:12;8.00;77.00
6536;DHT22;34330;52.08032700;5.40923460;2023-01-19T15:55:41;8.00;77.10
6536;DHT22;34330;52.08032700;5.40923460;2023-01-19T15:58:10;7.90;76.90
6536;DHT22;34330;52.08032700;5.40923460;2023-01-19T16:00:40;7.90;76.80
6536;DHT22;34330;52.08032700;5.40923460;2023-01-19T16:03:09;7.80;76.90
6536;DHT22;34330;52.08032700;5.40923460;2023-01-19T16:05:38;7.80;77.10
6536;DHT22;34330;52.08032700;5.40923460;2023-01-19T16:08:09;7.80;76.80
6536;DHT22;34330;52.08032700;5.40923460;2023-01-19T16:10:38;7.70;76.70
6536;DHT22;34330;52.08032700;5.40923460;2023-01-19T16:13:06;8.00;77.10
6536;DHT22;34330;52.08032700;5.40923460;2023-01-19T16:15:37;7.60;77.10
6536;DHT22;34330;52.08032700;5.40923460;2023-01-19T16:18:05;7.70;77.20
6536;DHT22;34330;52.08032700;5.40923460;2023-01-19T16:20:33;6.20;75.70
6536;DHT22;34330;52.08032700;5.40923460;2023-01-19T16:23:01;7.50;77.50
6536;DHT22;34330;52.08032700;5.40923460;2023-01-19T16:25:41;7.50;78.10
6536;DHT22;34330;52.08032700;5.40923460;2023-01-19T16:28:08;7.40;78.20
6536;DHT22;34330;52.08032700;5.40923460;2023-01-19T16:30:38;7.40;78.50
6536;DHT22;34330;52.08032700;5.40923460;2023-01-19T16:33:08;7.40;78.50
6536;DHT22;34330;52.08032700;5.40923460;2023-01-19T16:35:37;7.30;78.60
6536;DHT22;34330;52.08032700;5.40923460;2023-01-19T16:38:05;7.30;78.70
6536;DHT22;34330;52.08032700;5.40923460;2023-01-19T16:40:35;7.30;79.00
6536;DHT22;34330;52.08032700;5.40923460;2023-01-19T16:43:03;7.20;79.00
6536;DHT22;34330;52.08032700;5.40923460;2023-01-19T16:45:30;7.20;79.40
6536;DHT22;34330;52.08032700;5.40923460;2023-01-19T16:48:00;7.20;79.80
6536;DHT22;34330;52.08032700;5.40923460;2023-01-19T16:50:28;7.10;79.90
6536;DHT22;34330;52.08032700;5.40923460;2023-01-19T16:52:56;7.10;80.40
6536;DHT22;34330;52.08032700;5.40923460;2023-01-19T16:55:24;7.10;80.90
6536;DHT22;34330;52.08032700;5.40923460;2023-01-19T16:57:53;7.00;81.00
6536;DHT22;34330;52.08032700;5.40923460;2023-01-19T17:00:21;7.00;81.00
6536;DHT22;34330;52.08032700;5.40923460;2023-01-19T17:02:50;7.00;81.10
6536;DHT22;34330;52.08032700;5.40923460;2023-01-19T17:05:20;6.90;81.20
6536;DHT22;34330;52.08032700;5.40923460;2023-01-19T17:07:50;6.90;80.90
6536;DHT22;34330;52.08032700;5.40923460;2023-01-19T17:10:18;6.80;81.20
6536;DHT22;34330;52.08032700;5.40923460;2023-01-19T17:12:51;6.80;81.50
6536;DHT22;34330;52.08032700;5.40923460;2023-01-19T17:15:20;6.70;82.00
6536;DHT22;34330;52.08032700;5.40923460;2023-01-19T17:17:48;6.70;81.20
6536;DHT22;34330;52.08032700;5.40923460;2023-01-19T17:20:19;6.70;81.70
6536;DHT22;34330;52.08032700;5.40923460;2023-01-19T17:22:47;6.70;81.90
6536;DHT22;34330;52.08032700;5.40923460;2023-01-19T17:25:16;6.60;81.90
6536;DHT22;34330;52.08032700;5.40923460;2023-01-19T17:27:44;6.60;82.20
6536;DHT22;34330;52.08032700;5.40923460;2023-01-19T17:30:13;5.40;81.00
6536;DHT22;34330;52.08032700;5.40923460;2023-01-19T17:32:41;6.50;82.20
6536;DHT22;34330;52.08032700;5.40923460;2023-01-19T17:35:09;6.50;82.40
6536;DHT22;34330;52.08032700;5.40923460;2023-01-19T17:37:38;6.40;82.40
6536;DHT22;34330;52.08032700;5.40923460;2023-01-19T17:40:07;7.60;83.40
6536;DHT22;34330;52.08032700;5.40923460;2023-01-19T17:42:38;6.40;82.90
6536;DHT22;34330;52.08032700;5.40923460;2023-01-19T17:45:07;6.30;82.70
6536;DHT22;34330;52.08032700;5.40923460;2023-01-19T17:47:36;6.30;82.60
6536;DHT22;34330;52.08032700;5.40923460;2023-01-19T17:50:05;6.30;82.60
6536;DHT22;34330;52.08032700;5.40923460;2023-01-19T17:52:33;6.20;81.90
6536;DHT22;34330;52.08032700;5.40923460;2023-01-19T17:55:02;6.10;82.00
6536;DHT22;34330;52.08032700;5.40923460;2023-01-19T17:57:30;6.10;82.20
6536;DHT22;34330;52.08032700;5.40923460;2023-01-19T17:59:58;6.10;82.20
6536;DHT22;34330;52.08032700;5.40923460;2023-01-19T18:02:26;4.80;80.80
6536;DHT22;34330;52.08032700;5.40923460;2023-01-19T18:04:54;6.20;82.20
6536;DHT22;34330;52.08032700;5.40923460;2023-01-19T18:07:24;6.20;82.60
6536;DHT22;34330;52.08032700;5.40923460;2023-01-19T18:09:54;5.90;82.60
6536;DHT22;34330;52.08032700;5.40923460;2023-01-19T18:12:26;5.80;82.60
6536;DHT22;34330;52.08032700;5.40923460;2023-01-19T18:14:54;5.80;83.10
6536;DHT22;34330;52.08032700;5.40923460;2023-01-19T18:17:22;5.80;83.50
6536;DHT22;34330;52.08032700;5.40923460;2023-01-19T18:19:51;5.80;83.80
6536;DHT22;34330;52.08032700;5.40923460;2023-01-19T18:22:20;5.80;84.00
6536;DHT22;34330;52.08032700;5.40923460;2023-01-19T18:24:48;5.70;84.00
6536;DHT22;34330;52.08032700;5.40923460;2023-01-19T18:27:17;5.70;84.50
6536;DHT22;34330;52.08032700;5.40923460;2023-01-19T18:29:49;5.70;84.90
6536;DHT22;34330;52.08032700;5.40923460;2023-01-19T18:32:18;5.70;85.10
6536;DHT22;34330;52.08032700;5.40923460;2023-01-19T18:34:51;5.60;85.40
6536;DHT22;34330;52.08032700;5.40923460;2023-01-19T18:37:22;5.70;85.90
6536;DHT22;34330;52.08032700;5.40923460;2023-01-19T18:39:50;5.60;86.00
6536;DHT22;34330;52.08032700;5.40923460;2023-01-19T18:42:20;5.60;86.30
6536;DHT22;34330;52.08032700;5.40923460;2023-01-19T18:44:51;5.60;86.30
6536;DHT22;34330;52.08032700;5.40923460;2023-01-19T18:47:19;5.50;87.10
6536;DHT22;34330;52.08032700;5.40923460;2023-01-19T18:49:47;5.50;87.50
6536;DHT22;34330;52.08032700;5.40923460;2023-01-19T18:52:15;5.50;87.70
6536;DHT22;34330;52.08032700;5.40923460;2023-01-19T18:54:43;5.50;87.80
6536;DHT22;34330;52.08032700;5.40923460;2023-01-19T18:57:11;5.60;87.80
6536;DHT22;34330;52.08032700;5.40923460;2023-01-19T18:59:39;5.60;87.80
6536;DHT22;34330;52.08032700;5.40923460;2023-01-19T19:02:09;5.50;87.70
6536;DHT22;34330;52.08032700;5.40923460;2023-01-19T19:04:39;5.60;88.00
6536;DHT22;34330;52.08032700;5.40923460;2023-01-19T19:07:06;5.60;87.90
6536;DHT22;34330;52.08032700;5.40923460;2023-01-19T19:09:34;5.60;87.80
6536;DHT22;34330;52.08032700;5.40923460;2023-01-19T19:12:03;5.50;87.60
6536;DHT22;34330;52.08032700;5.40923460;2023-01-19T19:14:30;5.60;87.80
6536;DHT22;34330;52.08032700;5.40923460;2023-01-19T19:16:59;5.50;87.60
6536;DHT22;34330;52.08032700;5.40923460;2023-01-19T19:19:28;5.50;87.60
6536;DHT22;34330;52.08032700;5.40923460;2023-01-19T19:21:56;5.50;87.60
6536;DHT22;34330;52.08032700;5.40923460;2023-01-19T19:24:24;5.50;87.60
6536;DHT22;34330;52.08032700;5.40923460;2023-01-19T19:26:52;5.50;87.60
6536;DHT22;34330;52.08032700;5.40923460;2023-01-19T19:29:23;5.50;87.50
6536;DHT22;34330;52.08032700;5.40923460;2023-01-19T19:31:51;5.50;87.20
6536;DHT22;34330;52.08032700;5.40923460;2023-01-19T19:34:18;5.50;87.50
6536;DHT22;34330;52.08032700;5.40923460;2023-01-19T19:36:48;5.40;87.30
6536;DHT22;34330;52.08032700;5.40923460;2023-01-19T19:39:16;5.40;87.60
6536;DHT22;34330;52.08032700;5.40923460;2023-01-19T19:41:44;5.40;87.70
6536;DHT22;34330;52.08032700;5.40923460;2023-01-19T19:44:12;5.40;87.70
6536;DHT22;34330;52.08032700;5.40923460;2023-01-19T19:46:40;5.40;87.50
6536;DHT22;34330;52.08032700;5.40923460;2023-01-19T19:49:08;5.40;87.90
6536;DHT22;34330;52.08032700;5.40923460;2023-01-19T19:51:36;6.50;89.10
6536;DHT22;34330;52.08032700;5.40923460;2023-01-19T19:54:05;5.40;87.90
6536;DHT22;34330;52.08032700;5.40923460;2023-01-19T19:56:33;5.40;88.30
6536;DHT22;34330;52.08032700;5.40923460;2023-01-19T19:59:01;5.40;88.40
6536;DHT22;34330;52.08032700;5.40923460;2023-01-19T20:01:29;5.40;88.50
6536;DHT22;34330;52.08032700;5.40923460;2023-01-19T20:04:05;5.40;88.70
6536;DHT22;34330;52.08032700;5.40923460;2023-01-19T20:06:34;5.50;89.10
6536;DHT22;34330;52.08032700;5.40923460;2023-01-19T20:09:07;5.50;89.10
6536;DHT22;34330;52.08032700;5.40923460;2023-01-19T20:11:35;5.50;89.20
6536;DHT22;34330;52.08032700;5.40923460;2023-01-19T20:14:03;5.50;89.00
6536;DHT22;34330;52.08032700;5.40923460;2023-01-19T20:16:31;5.50;89.20
6536;DHT22;34330;52.08032700;5.40923460;2023-01-19T20:18:59;5.60;89.30
6536;DHT22;34330;52.08032700;5.40923460;2023-01-19T20:21:29;5.60;89.40
6536;DHT22;34330;52.08032700;5.40923460;2023-01-19T20:23:59;5.60;89.50
6536;DHT22;34330;52.08032700;5.40923460;2023-01-19T20:26:31;5.60;89.60
6536;DHT22;34330;52.08032700;5.40923460;2023-01-19T20:29:00;5.60;89.50
6536;DHT22;34330;52.08032700;5.40923460;2023-01-19T20:31:30;5.70;89.20
6536;DHT22;34330;52.08032700;5.40923460;2023-01-19T20:34:01;5.70;89.60
6536;DHT22;34330;52.08032700;5.40923460;2023-01-19T20:36:30;5.70;89.50
6536;DHT22;34330;52.08032700;5.40923460;2023-01-19T20:38:58;5.70;89.40
6536;DHT22;34330;52.08032700;5.40923460;2023-01-19T20:41:26;5.80;89.60
6536;DHT22;34330;52.08032700;5.40923460;2023-01-19T20:43:55;5.70;89.50
6536;DHT22;34330;52.08032700;5.40923460;2023-01-19T20:46:23;5.70;89.60
6536;DHT22;34330;52.08032700;5.40923460;2023-01-19T20:48:51;6.40;90.10
6536;DHT22;34330;52.08032700;5.40923460;2023-01-19T20:51:20;5.70;89.80
6536;DHT22;34330;52.08032700;5.40923460;2023-01-19T20:53:48;5.70;89.70
6536;DHT22;34330;52.08032700;5.40923460;2023-01-19T20:56:16;5.70;90.00
6536;DHT22;34330;52.08032700;5.40923460;2023-01-19T20:58:44;5.90;90.10
6536;DHT22;34330;52.08032700;5.40923460;2023-01-19T21:01:15;5.70;90.10
6536;DHT22;34330;52.08032700;5.40923460;2023-01-19T21:03:44;5.80;90.20
6536;DHT22;34330;52.08032700;5.40923460;2023-01-19T21:06:13;5.80;90.20
6536;DHT22;34330;52.08032700;5.40923460;2023-01-19T21:08:41;5.80;90.20
6536;DHT22;34330;52.08032700;5.40923460;2023-01-19T21:11:09;5.80;90.20
6536;DHT22;34330;52.08032700;5.40923460;2023-01-19T21:13:37;5.80;90.10
6536;DHT22;34330;52.08032700;5.40923460;2023-01-19T21:16:06;5.80;90.20
6536;DHT22;34330;52.08032700;5.40923460;2023-01-19T21:18:35;5.80;90.10
6536;DHT22;34330;52.08032700;5.40923460;2023-01-19T21:21:03;5.80;90.10
6536;DHT22;34330;52.08032700;5.40923460;2023-01-19T21:23:34;5.80;90.10
6536;DHT22;34330;52.08032700;5.40923460;2023-01-19T21:26:02;5.80;90.10
6536;DHT22;34330;52.08032700;5.40923460;2023-01-19T21:28:30;5.80;90.10
6536;DHT22;34330;52.08032700;5.40923460;2023-01-19T21:31:04;5.80;90.10
6536;DHT22;34330;52.08032700;5.40923460;2023-01-19T21:33:34;5.80;90.20
6536;DHT22;34330;52.08032700;5.40923460;2023-01-19T21:36:02;5.80;90.20
6536;DHT22;34330;52.08032700;5.40923460;2023-01-19T21:38:30;5.80;90.10
6536;DHT22;34330;52.08032700;5.40923460;2023-01-19T21:40:58;5.80;90.10
6536;DHT22;34330;52.08032700;5.40923460;2023-01-19T21:43:30;5.70;90.00
6536;DHT22;34330;52.08032700;5.40923460;2023-01-19T21:46:07;5.70;89.90
6536;DHT22;34330;52.08032700;5.40923460;2023-01-19T21:48:36;5.70;90.00
6536;DHT22;34330;52.08032700;5.40923460;2023-01-19T21:51:04;5.60;89.90
6536;DHT22;34330;52.08032700;5.40923460;2023-01-19T21:53:32;5.60;90.00
6536;DHT22;34330;52.08032700;5.40923460;2023-01-19T21:56:00;5.60;90.00
6536;DHT22;34330;52.08032700;5.40923460;2023-01-19T21:58:28;5.50;89.90
6536;DHT22;34330;52.08032700;5.40923460;2023-01-19T22:01:00;5.50;89.90
6536;DHT22;34330;52.08032700;5.40923460;2023-01-19T22:03:28;5.50;90.00
6536;DHT22;34330;52.08032700;5.40923460;2023-01-19T22:06:02;5.40;90.00
6536;DHT22;34330;52.08032700;5.40923460;2023-01-19T22:08:30;5.30;90.10
6536;DHT22;34330;52.08032700;5.40923460;2023-01-19T22:11:15;5.30;90.10
6536;DHT22;34330;52.08032700;5.40923460;2023-01-19T22:13:52;5.30;90.20
6536;DHT22;34330;52.08032700;5.40923460;2023-01-19T22:16:22;5.30;90.10
6536;DHT22;34330;52.08032700;5.40923460;2023-01-19T22:18:52;5.30;90.30
6536;DHT22;34330;52.08032700;5.40923460;2023-01-19T22:21:25;5.20;90.30
6536;DHT22;34330;52.08032700;5.40923460;2023-01-19T22:23:55;5.20;90.30
6536;DHT22;34330;52.08032700;5.40923460;2023-01-19T22:26:24;5.20;90.40
6536;DHT22;34330;52.08032700;5.40923460;2023-01-19T22:28:53;5.20;90.40
6536;DHT22;34330;52.08032700;5.40923460;2023-01-19T22:31:22;5.10;90.40
6536;DHT22;34330;52.08032700;5.40923460;2023-01-19T22:33:51;5.40;90.50
6536;DHT22;34330;52.08032700;5.40923460;2023-01-19T22:36:21;5.10;90.40
6536;DHT22;34330;52.08032700;5.40923460;2023-01-19T22:38:52;5.00;90.20
6536;DHT22;34330;52.08032700;5.40923460;2023-01-19T22:41:22;5.00;90.60
6536;DHT22;34330;52.08032700;5.40923460;2023-01-19T22:43:53;5.00;90.70
6536;DHT22;34330;52.08032700;5.40923460;2023-01-19T22:46:22;5.00;90.70
6536;DHT22;34330;52.08032700;5.40923460;2023-01-19T22:48:51;4.90;90.80
6536;DHT22;34330;52.08032700;5.40923460;2023-01-19T22:51:23;4.90;90.80
6536;DHT22;34330;52.08032700;5.40923460;2023-01-19T22:53:53;4.90;90.80
6536;DHT22;34330;52.08032700;5.40923460;2023-01-19T22:56:22;4.90;90.80
6536;DHT22;34330;52.08032700;5.40923460;2023-01-19T22:58:50;4.90;90.90
6536;DHT22;34330;52.08032700;5.40923460;2023-01-19T23:01:19;4.90;90.90
6536;DHT22;34330;52.08032700;5.40923460;2023-01-19T23:03:48;4.80;91.00
6536;DHT22;34330;52.08032700;5.40923460;2023-01-19T23:06:20;5.00;91.10
6536;DHT22;34330;52.08032700;5.40923460;2023-01-19T23:08:49;4.80;91.00
6536;DHT22;34330;52.08032700;5.40923460;2023-01-19T23:11:20;4.80;91.10
6536;DHT22;34330;52.08032700;5.40923460;2023-01-19T23:13:49;4.80;91.20
6536;DHT22;34330;52.08032700;5.40923460;2023-01-19T23:16:18;4.80;90.90
6536;DHT22;34330;52.08032700;5.40923460;2023-01-19T23:18:51;4.80;91.20
6536;DHT22;34330;52.08032700;5.40923460;2023-01-19T23:21:22;4.80;91.30
6536;DHT22;34330;52.08032700;5.40923460;2023-01-19T23:23:52;4.80;91.30
6536;DHT22;34330;52.08032700;5.40923460;2023-01-19T23:26:23;4.80;91.40
6536;DHT22;34330;52.08032700;5.40923460;2023-01-19T23:28:53;4.80;91.40
6536;DHT22;34330;52.08032700;5.40923460;2023-01-19T23:31:23;4.80;91.40
6536;DHT22;34330;52.08032700;5.40923460;2023-01-19T23:33:54;4.80;91.40
6536;DHT22;34330;52.08032700;5.40923460;2023-01-19T23:36:24;4.80;91.40
6536;DHT22;34330;52.08032700;5.40923460;2023-01-19T23:38:54;4.80;91.30
6536;DHT22;34330;52.08032700;5.40923460;2023-01-19T23:41:25;4.80;91.30
6536;DHT22;34330;52.08032700;5.40923460;2023-01-19T23:43:53;4.80;91.30
6536;DHT22;34330;52.08032700;5.40923460;2023-01-19T23:46:22;4.80;91.20
6536;DHT22;34330;52.08032700;5.40923460;2023-01-19T23:48:50;4.80;91.00